Pahrump, Nevada Weather observations

Data are for observation ending at time listed.
 Day   Time    Ave.   Ave.  Ave.  Vector   Max.   Stn.    Total    Solar   Ave.  
  of    of     Air    Rel.  Wind   Wind    Wind   Baro.  Precip.   Rad.    Soil  
Year   Day     Temp.  Hum.  Speed  Dir.    Gust   Pres.                    Temp. 
2023   (PST)    F      %     mph   deg.    mph     mb.     in.     W/m2     F   
------------------------------------------------------------------------------
  31    3:40   29.9    44    3.8   354      5.7   921.1    0.00       0    40.0
  31    3:50   30.4    41    2.9   354      5.6   921.2    0.00       0    39.8
  31    4:00   30.0    44    2.7   354      5.1   921.2    0.00       0    39.7
  31    4:10   29.0    58    3.8   354      6.2   921.2    0.00       0    39.6
  31    4:20   28.7    60    2.6   354      5.1   921.2    0.00       0    39.5
  31    4:30   29.0    62    4.8   355      8.0   921.1    0.00       0    39.3
  31    4:40   29.2    62    3.6   355      8.0   921.2    0.00       0    39.2
  31    4:50   29.4    60    2.0   355      4.2   921.3    0.00       0    39.1
  31    5:00   28.1    62    2.0   354      4.7   921.5    0.00       0    39.0
  31    5:10   27.9    57    3.8    22      5.6   921.5    0.00       0    38.9
  31    5:20   28.4    52    3.4   162      7.1   921.6    0.00       0    38.8
  31    5:30   28.7    51    5.1   147      8.8   921.7    0.00       0    38.6
  31    5:40   29.1    52    6.1   150      9.6   921.7    0.00       0    38.5
  31    5:50   29.0    50    4.5   163      7.7   921.9    0.00       0    38.4
  31    6:00   29.1    48    5.6   158     11.2   922.1    0.00       0    38.3
  31    6:10   28.9    48    5.2   167      7.7   922.3    0.00       0    38.2
  31    6:20   28.4    48    6.0   168      8.4   922.3    0.00       0    38.1
  31    6:30   28.0    48    5.4   173      9.1   922.4    0.00       0    38.0
  31    6:40   27.9    47    4.6   178      7.5   922.6    0.00       1    37.9
  31    6:50   27.3    49    5.0   168      8.4   922.7    0.00       5    37.8
  31    7:00   27.3    52    4.1   154      6.8   922.8    0.00      11    37.7
  31    7:10   28.4    50    4.9   170      7.2   922.9    0.00      22    37.6
  31    7:20   28.9    50    3.9   167      6.1   923.1    0.00      42    37.5
  31    7:30   29.8    50    2.9   162      5.6   923.3    0.00      71    37.5
  31    7:40   30.6    51    3.3   161      6.6   923.4    0.00     105    37.4
  31    7:50   31.4    51    2.7   171      4.5   923.7    0.00     151    37.5
  31    8:00   32.4    51    3.3   175      5.2   923.9    0.00     185    37.6
  31    8:10   32.1    51    3.3   173      5.5   924.1    0.00     217    38.0
  31    8:20   32.6    49    3.3   166      4.7   924.3    0.00     251    38.5
  31    8:30   33.4    45    3.1   151      5.0   924.6    0.00     285    39.0
  31    8:40   34.2    42    3.1   178      5.2   924.7    0.00     319    39.5
  31    8:50   35.4    37    3.5   181      5.3   924.8    0.00     352    40.0
  31    9:00   35.7    34    3.4   220      6.0   925.0    0.00     384    40.4
  31    9:10   35.8    33    4.3   353      7.5   925.2    0.00     415    40.8
  31    9:20   36.1    32    4.5   355      8.9   925.3    0.00     446    41.1
  31    9:30   36.0    33    6.0   355      8.1   925.5    0.00     475    41.4
  31    9:40   36.5    32    6.8    30     10.5   925.6    0.00     503    41.4
  31    9:50   37.1    31    5.5   150      9.2   925.7    0.00     530    41.4
  31   10:00   38.4    29    3.6   322      5.8   925.8    0.00     554    41.3
  31   10:10   39.1    28    3.7   328      6.4   925.9    0.00     456    41.2
  31   10:20   39.3    28    3.1   355      5.6   926.0    0.00      49    41.2
  31   10:30   39.1    28    3.6   355      7.3   926.0    0.00     395    41.1
  31   10:40   39.7    29    4.3   355      8.3   925.9    0.00     554    41.1
  31   10:50   40.6    28    5.0   354      8.5   925.9    0.00     656    41.1
  31   11:00   40.8    28    4.4   353      7.2   925.8    0.00     671    41.2
  31   11:10   42.0    28    3.7   353      7.9   925.9    0.00     683    41.3
  31   11:20   42.5    27    3.7   352      6.4   925.9    0.00     694    41.4
  31   11:30   43.1    26    4.0   355      7.9   925.8    0.00     703    42.0
  31   11:40   42.7    27    4.8   351      8.3   925.8    0.00     711    43.1
  31   11:50   43.4    26    5.5   352      9.3   925.6    0.00     690    44.2
  31   12:00   43.7    23    5.3   353      8.9   925.5    0.00     722    45.4
  31   12:10   44.5    22    4.8   353      8.3   925.3    0.00     722    46.4
  31   12:20   45.1    21    5.0   354      9.5   925.3    0.00     721    47.4
  31   12:30   45.5    20    5.3   355      8.6   925.3    0.00     690    48.3
  31   12:40   45.2    21    5.6   355      8.6   925.1    0.00     714    49.1
  31   12:50   46.2    20    4.6   355      8.6   925.0    0.00     706    49.9
  31   13:00   46.6    19    5.2   355      8.0   925.0    0.00     696    50.5
  31   13:10   47.3    20    4.7   355      7.7   924.9    0.00     686    51.1
  31   13:20   47.3    20    5.6   354      9.6   924.8    0.00     673    51.7
  31   13:30   47.8    19    2.8   350      5.5   924.7    0.00     658    52.2
  31   13:40   49.0    18    2.6   355      5.6   924.7    0.00     640    52.7
  31   13:50   49.7    17    2.8   355      5.3   924.8    0.00     620    53.1
  31   14:00   50.3    16    2.2   355      5.0   924.8    0.00     600    53.6
  31   14:10   51.2    15    2.5   355      5.9   924.8    0.00     577    53.9
  31   14:20   51.1    15    2.0   355      4.0   924.9    0.00     555    54.2
  31   14:30   51.6    15    1.8   355      4.9   925.1    0.00     531    54.5
  31   14:40   51.6    14    2.7   355      5.3   925.1    0.00     505    54.7
  31   14:50   51.1    14    1.6   355      3.2   925.1    0.00     479    54.8
  31   15:00   52.8    14    1.3   354      2.6   925.0    0.00     448    54.8
  31   15:10   53.5    13    2.1   355      4.5   925.0    0.00     419    54.8
  31   15:20   52.9    13    1.6   355      4.7   924.9    0.00     389    54.8
  31   15:30   53.1    13    2.2   355      5.3   924.9    0.00     352    54.8
  31   15:40   52.1    13    4.0   353      6.9   924.9    0.00     324    54.7
  31   15:50   51.5    13    3.8   350      5.6   924.8    0.00     290    54.5
  31   16:00   51.5    13    4.6   350      7.2   924.7    0.00     258    54.2
  31   16:10   51.5    12    3.0   351      6.7   924.5    0.00     224    53.9
  31   16:20   51.0    12    4.6   351      7.5   924.5    0.00     189    53.6
  31   16:30   50.5    12    4.6   352      7.7   924.3    0.00     156    53.2
  31   16:40   49.9    13    4.6   355      8.0   924.2    0.00     109    52.8
  31   16:50   49.2    13    4.2   355      7.0   924.2    0.00      60    52.4
  31   17:00   48.5    14    3.4   355      5.7   924.1    0.00      33    52.1
  31   17:10   47.3    14    3.0   355      5.9   924.0    0.00      10    51.7
  31   17:20   46.5    15    2.5   355      4.3   923.9    0.00       4    51.3
  31   17:30   46.2    15    3.3   355      5.5   923.8    0.00       2    50.9
  31   17:40   45.9    16    2.7   355      4.7   923.9    0.00       0    50.5
  31   17:50   45.3    18    4.2   355      5.8   923.8    0.00       0    50.1
  31   18:00   44.1    20    2.9   347      5.2   923.9    0.00       0    49.8
  31   18:10   43.0    21    3.6   347      5.2   923.9    0.00       0    49.4
  31   18:20   42.5    22    2.3   354      4.7   923.9    0.00       0    49.1
  31   18:30   41.5    23    2.6   345      6.0   924.0    0.00       0    48.7
  31   18:40   41.9    21    2.8   321      4.7   923.9    0.00       0    48.4
  31   18:50   42.0    21    2.4   322      3.9   923.9    0.00       0    48.1
  31   19:00   41.1    22    0.6   346      2.0   924.0    0.00       0    47.8
  31   19:10   39.8    25    1.0   356      1.8   924.0    0.00       0    47.6
  31   19:20   38.3    28    0.4   355      2.1   924.0    0.00       0    47.3
  31   19:30   37.0    30    1.2     4      2.6   924.0    0.00       0    47.0
  31   19:40   36.0    32    1.1    41      3.1   924.0    0.00       0    46.8
  31   19:50   35.8    32    1.5    89      3.0   924.0    0.00       0    46.5
  31   20:00   35.7    32    1.6   114      2.8   924.0    0.00       0    46.2
  31   20:10   35.9    33    2.1   109      3.1   924.0    0.00       0    46.0
  31   20:20   35.6    35    0.6   106      2.1   924.0    0.00       0    45.7
  31   20:30   35.6    34    2.5    98      4.5   924.0    0.00       0    45.5
  31   20:40   35.8    34    2.3   108      3.9   924.0    0.00       0    45.2
  31   20:50   35.5    36    1.2   130      3.0   924.2    0.00       0    45.0
  31   21:00   35.1    38    1.4   136      2.4   924.3    0.00       0    44.8
  31   21:10   34.2    40    2.6   115      4.2   924.3    0.00       0    44.6
  31   21:20   34.2    39    3.8   113      5.6   924.3    0.00       0    44.4
  31   21:30   35.1    35    2.0   111      3.3   924.4    0.00       0    44.2
  31   21:40   35.2    35    3.9   100      5.5   924.5    0.00       0    44.0
  31   21:50   34.7    37    3.5   106      4.8   924.5    0.00       0    43.8
  31   22:00   34.5    37    3.5   112      4.7   924.5    0.00       0    43.7
  31   22:10   34.4    37    4.6   101      6.6   924.4    0.00       0    43.5
  31   22:20   34.4    37    1.3   122      4.2   924.5    0.00       0    43.3
  31   22:30   33.7    40    0.2   244      1.5   924.6    0.00       0    43.2
  31   22:40   32.4    43    0.6   289      2.0   924.6    0.00       0    43.0
  31   22:50   31.5    43    0.5   324      2.0   924.7    0.00       0    42.9
  31   23:00   31.4    44    1.5    32      2.6   924.7    0.00       0    42.7
  31   23:10   32.0    43    2.2    89      4.4   924.5    0.00       0    42.6
  31   23:20   31.9    42    3.4   101      4.9   924.4    0.00       0    42.4
  31   23:30   32.1    43    1.4   110      3.0   924.4    0.00       0    42.2
  31   23:40   30.7    47    0.9   310      3.0   924.3    0.00       0    42.0
  31   23:50   30.3    48    1.0    82      2.3   924.3    0.00       0    41.9
  32    0:00   30.4    49    0.2    65      1.5   924.3    0.00       0    41.7
  32    0:10   30.5    47    1.3    88      2.9   924.2    0.00       0    41.6
  32    0:20   31.1    44    0.5    46      1.8   924.1    0.00       0    41.4
  32    0:30   31.3    42    0.5    84      1.3   924.0    0.00       0    41.3
  32    0:40   31.5    40    1.4    83      2.2   923.9    0.00       0    41.1
  32    0:50   31.3    42    1.6   120      2.4   923.8    0.00       0    41.0
  32    1:00   30.9    43    2.1   122      3.2   923.9    0.00       0    40.9
  32    1:10   31.0    43    1.3   118      2.7   924.0    0.00       0    40.8
  32    1:20   30.4    46    1.7   134      2.9   924.0    0.00       0    40.7
  32    1:30   30.3    46    0.3   123      1.0   924.0    0.00       0    40.5
  32    1:40   30.3    47    1.4   129      2.8   924.0    0.00       0    40.4
  32    1:50   29.5    51    1.3   148      2.1   923.9    0.00       0    40.3
  32    2:00   29.1    51    1.8   157      2.5   923.9    0.00       0    40.2
  32    2:10   29.0    50    1.2   140      2.0   923.9    0.00       0    40.0
  32    2:20   28.9    51    1.4   163      2.9   923.9    0.00       0    39.9
  32    2:30   28.3    54    1.2   228      3.7   924.0    0.00       0    39.8
  32    2:40   25.9    59    1.3   344      2.7   923.8    0.00       0    39.7
  32    2:50   25.3    60    0.6   353      2.1   923.8    0.00       0    39.6
  32    3:00   25.9    59    1.4   349      2.4   923.7    0.00       0    39.4
  32    3:10   26.1    60    1.3   351      3.1   923.6    0.00       0    39.3
  32    3:20   25.3    63    1.0   352      2.6   923.5    0.00       0    39.1
  32    3:30   25.3    61    0.5   175      2.6   923.2    0.00       0    39.0

Return to Pahrump, Nevada graphs page.


Western Regional Climate Center,wrcc@dri.edu